createdAt,value
2018-09-09T00:01:07.076Z,70.77
2018-09-09T00:03:35.447Z,72.46
2018-09-09T00:06:05.158Z,71.36
2018-09-09T00:08:33.382Z,70.60
2018-09-09T00:11:01.667Z,72.56
2018-09-09T00:13:29.893Z,72.33
2018-09-09T00:15:58.092Z,71.46
2018-09-09T00:18:26.727Z,72.26
2018-09-09T00:20:55.540Z,71.44
2018-09-09T00:23:23.855Z,71.97
2018-09-09T00:25:52.131Z,72.33
2018-09-09T00:28:22.616Z,72.89
2018-09-09T00:30:50.986Z,74.73
2018-09-09T00:33:19.259Z,73.28
2018-09-09T00:35:47.510Z,73.08
2018-09-09T00:38:15.567Z,73.66
2018-09-09T00:40:43.628Z,72.61
2018-09-09T00:43:17.215Z,71.83
2018-09-09T00:45:45.308Z,73.23
2018-09-09T00:48:13.377Z,73.56
2018-09-09T00:50:46.774Z,73.85
2018-09-09T00:53:20.052Z,73.47
2018-09-09T00:55:48.154Z,72.98
2018-09-09T00:58:16.242Z,74.09
2018-09-09T01:00:49.740Z,74.09
2018-09-09T01:03:17.827Z,73.80
2018-09-09T01:05:45.927Z,74.76
2018-09-09T01:08:14.167Z,74.47
2018-09-09T01:10:42.243Z,74.63
2018-09-09T01:13:10.428Z,74.90
2018-09-09T01:15:38.501Z,74.50
2018-09-09T01:18:06.583Z,74.70
2018-09-09T01:20:34.664Z,74.75
2018-09-09T01:23:02.831Z,75.78
2018-09-09T01:25:30.915Z,76.00
2018-09-09T01:27:59.011Z,75.71
2018-09-09T01:30:27.060Z,75.58
2018-09-09T01:32:55.141Z,75.76
2018-09-09T01:35:23.216Z,76.83
2018-09-09T01:37:51.299Z,76.38
2018-09-09T01:40:19.347Z,76.87
2018-09-09T01:42:47.423Z,76.65
2018-09-09T01:45:15.493Z,77.71
2018-09-09T01:47:49.969Z,77.90
2018-09-09T01:50:18.039Z,78.10
2018-09-09T01:52:46.141Z,78.41
2018-09-09T01:55:14.211Z,78.28
2018-09-09T01:57:42.291Z,78.52
2018-09-09T02:00:10.410Z,79.06
2018-09-09T02:02:38.502Z,79.32
2018-09-09T02:05:06.582Z,79.80
2018-09-09T02:07:34.740Z,79.13
2018-09-09T02:10:02.790Z,79.21
2018-09-09T02:12:30.867Z,79.08
2018-09-09T02:14:58.972Z,79.11
2018-09-09T02:17:27.048Z,79.59
2018-09-09T02:19:55.119Z,78.15
2018-09-09T02:22:23.183Z,80.70
2018-09-09T02:24:51.242Z,81.98
2018-09-09T02:27:19.332Z,82.33
2018-09-09T02:29:47.390Z,82.90
2018-09-09T02:32:15.501Z,82.60
2018-09-09T02:34:43.574Z,83.16
2018-09-09T02:37:17.928Z,82.08
2018-09-09T02:39:46.040Z,81.73
2018-09-09T02:42:14.147Z,81.28
2018-09-09T02:44:42.243Z,81.24
2018-09-09T02:47:10.315Z,82.26
2018-09-09T02:49:38.376Z,81.88
2018-09-09T02:52:06.555Z,81.82
2018-09-09T02:54:34.622Z,81.55
2018-09-09T02:57:02.691Z,81.90
2018-09-09T02:59:30.860Z,82.43
2018-09-09T03:01:58.984Z,82.69
2018-09-09T03:04:27.127Z,82.92
2018-09-09T03:06:55.207Z,83.54
2018-09-09T03:09:23.380Z,83.54
2018-09-09T03:11:51.420Z,84.17
2018-09-09T03:14:19.512Z,83.90
2018-09-09T03:16:47.586Z,83.37
2018-09-09T03:19:15.747Z,83.54
2018-09-09T03:21:43.863Z,84.38
2018-09-09T03:24:11.939Z,84.77
2018-09-09T03:26:40.003Z,85.03
2018-09-09T03:29:08.071Z,83.62
2018-09-09T03:31:36.171Z,83.38
2018-09-09T03:34:04.253Z,83.73
2018-09-09T03:36:32.326Z,84.82
2018-09-09T03:39:00.461Z,84.86
2018-09-09T03:41:28.532Z,85.53
2018-09-09T03:43:56.596Z,85.83
2018-09-09T03:46:24.671Z,86.25
2018-09-09T03:48:52.743Z,85.64
2018-09-09T03:51:20.799Z,85.65
2018-09-09T03:53:48.891Z,84.20
2018-09-09T03:56:16.956Z,84.64
2018-09-09T03:58:45.062Z,85.17
2018-09-09T04:01:13.126Z,85.14
2018-09-09T04:03:41.297Z,85.47
2018-09-09T04:06:09.372Z,85.74
2018-09-09T04:08:37.458Z,85.90
2018-09-09T04:11:08.816Z,86.04
2018-09-09T04:13:37.243Z,85.36
2018-09-09T04:16:05.333Z,85.15
2018-09-09T04:18:33.400Z,86.51
2018-09-09T04:21:01.476Z,87.12
2018-09-09T04:23:29.569Z,86.58
2018-09-09T04:25:57.900Z,85.91
2018-09-09T04:28:25.980Z,86.07
2018-09-09T04:30:54.185Z,86.48
2018-09-09T04:33:22.455Z,86.28
2018-09-09T04:35:50.581Z,86.67
2018-09-09T04:38:18.656Z,87.90
2018-09-09T04:40:46.758Z,88.06
2018-09-09T04:43:14.883Z,86.19
2018-09-09T04:45:42.936Z,86.70
2018-09-09T04:48:11.000Z,85.74
2018-09-09T04:50:39.079Z,85.52
2018-09-09T04:53:07.198Z,86.35
2018-09-09T04:55:35.307Z,86.69
2018-09-09T04:58:03.417Z,86.79
2018-09-09T05:00:31.575Z,87.49
2018-09-09T05:02:59.791Z,87.89
2018-09-09T05:05:27.859Z,87.69
2018-09-09T05:07:55.999Z,88.75
2018-09-09T05:10:24.080Z,89.74
2018-09-09T05:12:52.167Z,89.57
2018-09-09T05:15:20.263Z,89.54
2018-09-09T05:17:48.327Z,89.12
2018-09-09T05:20:16.436Z,89.06
2018-09-09T05:22:44.552Z,87.50
2018-09-09T05:25:12.629Z,87.29
2018-09-09T05:27:40.696Z,87.99
2018-09-09T05:30:08.910Z,87.58
2018-09-09T05:32:36.975Z,87.36
2018-09-09T05:35:05.076Z,87.24
2018-09-09T05:37:33.200Z,87.92
2018-09-09T05:40:01.326Z,87.74
2018-09-09T05:42:29.518Z,87.85
2018-09-09T05:44:57.492Z,87.08
2018-09-09T05:47:25.564Z,86.77
2018-09-09T05:49:53.634Z,86.19
2018-09-09T05:52:21.706Z,86.06
2018-09-09T05:54:49.796Z,85.77
2018-09-09T05:57:17.868Z,85.14
2018-09-09T05:59:45.976Z,84.44
2018-09-09T06:02:14.065Z,84.01
2018-09-09T06:04:42.159Z,83.99
2018-09-09T06:07:10.275Z,84.25
2018-09-09T06:09:38.401Z,83.50
2018-09-09T06:12:06.567Z,83.65
2018-09-09T06:14:34.689Z,82.45
2018-09-09T06:17:02.764Z,82.19
2018-09-09T06:19:30.851Z,82.38
2018-09-09T06:21:58.991Z,81.26
2018-09-09T06:24:27.080Z,80.84
2018-09-09T06:26:55.381Z,80.28
2018-09-09T06:29:23.549Z,79.75
2018-09-09T06:31:51.640Z,79.05
2018-09-09T06:34:19.863Z,78.76
2018-09-09T06:36:48.188Z,78.88
2018-09-09T06:39:16.491Z,78.65
2018-09-09T06:41:44.997Z,77.56
2018-09-09T06:44:14.268Z,77.55
2018-09-09T06:46:42.450Z,77.94
2018-09-09T06:49:11.678Z,77.92
2018-09-09T06:51:40.216Z,77.48
2018-09-09T06:54:08.628Z,77.35
2018-09-09T06:56:37.125Z,74.85
2018-09-09T06:59:05.910Z,75.36
2018-09-09T07:01:34.305Z,75.17
2018-09-09T07:04:03.530Z,74.64
2018-09-09T07:06:31.896Z,74.25
2018-09-09T07:09:00.247Z,74.75
2018-09-09T07:11:28.590Z,74.46
2018-09-09T07:13:56.820Z,74.63
2018-09-09T07:16:25.211Z,75.31
2018-09-09T07:18:54.352Z,75.69
2018-09-09T07:21:22.949Z,74.82
2018-09-09T07:23:51.302Z,74.62
2018-09-09T07:26:19.493Z,75.19
2018-09-09T07:28:47.957Z,73.58
2018-09-09T07:31:16.295Z,72.73
2018-09-09T07:33:44.574Z,72.78
2018-09-09T07:36:12.759Z,72.54
2018-09-09T07:38:40.991Z,72.24
2018-09-09T07:41:09.104Z,72.06
2018-09-09T07:43:37.189Z,70.77
2018-09-09T07:46:05.287Z,70.83
2018-09-09T07:48:33.365Z,70.70
2018-09-09T07:51:01.576Z,70.72
2018-09-09T07:53:29.614Z,70.26
2018-09-09T07:55:57.724Z,69.98
2018-09-09T07:58:25.826Z,69.24
2018-09-09T08:00:53.944Z,69.18
2018-09-09T08:03:22.036Z,69.11
2018-09-09T08:05:50.143Z,69.85
2018-09-09T08:08:18.267Z,69.17
2018-09-09T08:10:46.349Z,68.60
2018-09-09T08:13:14.549Z,68.38
2018-09-09T08:15:42.642Z,67.74
2018-09-09T08:18:10.735Z,67.64
2018-09-09T08:20:38.828Z,67.49
2018-09-09T08:23:06.908Z,67.28
2018-09-09T08:25:35.011Z,65.74
2018-09-09T08:28:03.119Z,65.04
2018-09-09T08:30:31.202Z,64.23
2018-09-09T08:32:59.258Z,63.24
2018-09-09T08:35:27.323Z,61.96
2018-09-09T08:37:55.451Z,62.25
2018-09-09T08:40:23.545Z,62.71
2018-09-09T08:42:51.610Z,62.02
2018-09-09T08:45:19.745Z,60.71
2018-09-09T08:47:47.814Z,61.05
2018-09-09T08:50:15.878Z,61.86
2018-09-09T08:52:43.946Z,62.08
2018-09-09T08:55:12.054Z,60.18
2018-09-09T08:57:40.258Z,61.30
2018-09-09T09:00:08.280Z,59.84
2018-09-09T09:02:36.443Z,59.93
2018-09-09T09:05:04.579Z,59.94
2018-09-09T09:07:32.673Z,58.64
2018-09-09T09:10:00.801Z,59.93
2018-09-09T09:12:29.067Z,59.84
2018-09-09T09:14:57.147Z,58.27
2018-09-09T09:17:25.236Z,56.93
2018-09-09T09:19:53.343Z,58.65
2018-09-09T09:22:21.448Z,56.58
2018-09-09T09:24:49.505Z,57.45
2018-09-09T09:27:17.602Z,57.44
2018-09-09T09:29:50.965Z,57.24
2018-09-09T09:32:22.498Z,56.67
2018-09-09T09:34:50.726Z,56.59
2018-09-09T09:37:19.263Z,56.22
2018-09-09T09:39:47.492Z,55.01
2018-09-09T09:42:15.595Z,54.04
2018-09-09T09:44:44.246Z,54.22
2018-09-09T09:47:12.511Z,53.21
2018-09-09T09:49:40.734Z,53.34
2018-09-09T09:52:09.140Z,52.97
2018-09-09T09:54:37.859Z,51.92
2018-09-09T09:57:05.965Z,52.61
2018-09-09T09:59:34.039Z,52.45
2018-09-09T10:02:02.111Z,53.02
2018-09-09T10:04:30.203Z,52.42
2018-09-09T10:06:58.283Z,52.68
2018-09-09T10:09:26.350Z,51.88
2018-09-09T10:11:54.519Z,50.95
2018-09-09T10:14:22.660Z,50.10
2018-09-09T10:16:50.835Z,51.25
2018-09-09T10:19:19.110Z,50.33
2018-09-09T10:21:47.195Z,50.41
2018-09-09T10:24:15.310Z,50.34
2018-09-09T10:26:43.399Z,49.95
2018-09-09T10:29:11.529Z,50.96
2018-09-09T10:31:39.663Z,51.00
2018-09-09T10:34:07.719Z,48.77
2018-09-09T10:36:35.810Z,48.67
2018-09-09T10:39:04.907Z,48.65
2018-09-09T10:41:32.987Z,48.21
2018-09-09T10:44:01.063Z,48.25
2018-09-09T10:46:29.303Z,48.01
2018-09-09T10:48:57.311Z,48.88
2018-09-09T10:51:25.403Z,48.63
2018-09-09T10:53:53.488Z,48.54
2018-09-09T10:56:21.575Z,48.97
2018-09-09T10:58:49.703Z,47.49
2018-09-09T11:01:17.726Z,47.78
2018-09-09T11:03:45.792Z,47.06
2018-09-09T11:06:13.864Z,46.84
2018-09-09T11:08:41.928Z,47.47
2018-09-09T11:11:09.997Z,46.92
2018-09-09T11:13:38.093Z,46.27
2018-09-09T11:16:06.303Z,46.30
2018-09-09T11:18:34.395Z,46.42
2018-09-09T11:21:02.513Z,45.93
2018-09-09T11:23:30.614Z,44.95
2018-09-09T11:25:58.703Z,45.02
2018-09-09T11:28:26.806Z,44.50
2018-09-09T11:30:54.884Z,45.12
2018-09-09T11:33:22.955Z,44.20
2018-09-09T11:35:51.007Z,44.48
2018-09-09T11:38:19.090Z,45.10
2018-09-09T11:40:47.291Z,45.32
2018-09-09T11:43:15.304Z,45.33
2018-09-09T11:45:43.397Z,44.34
2018-09-09T11:48:11.488Z,44.25
2018-09-09T11:50:39.559Z,43.74
2018-09-09T11:53:07.664Z,40.49
2018-09-09T11:55:35.738Z,41.43
2018-09-09T11:58:03.835Z,41.02
2018-09-09T12:00:31.891Z,40.85
2018-09-09T12:02:59.963Z,40.90
2018-09-09T12:05:28.039Z,41.92
2018-09-09T12:07:56.140Z,41.61
2018-09-09T12:10:24.224Z,41.79
2018-09-09T12:12:52.340Z,42.01
2018-09-09T12:15:20.461Z,40.79
2018-09-09T12:17:48.547Z,40.30
2018-09-09T12:20:16.616Z,41.28
2018-09-09T12:22:44.709Z,41.67
2018-09-09T12:25:12.802Z,40.74
2018-09-09T12:27:40.867Z,40.31
2018-09-09T12:30:08.952Z,40.43
2018-09-09T12:32:37.071Z,41.50
2018-09-09T12:35:05.509Z,40.26
2018-09-09T12:37:33.591Z,40.24
2018-09-09T12:40:01.704Z,40.41
2018-09-09T12:42:29.806Z,41.18
2018-09-09T12:45:03.251Z,41.96
2018-09-09T12:47:36.762Z,42.17
2018-09-09T12:50:05.008Z,41.55
2018-09-09T12:52:33.097Z,41.34
2018-09-09T12:55:01.291Z,41.60
2018-09-09T12:57:29.417Z,41.55
2018-09-09T12:59:57.513Z,40.88
2018-09-09T13:02:25.735Z,40.59
2018-09-09T13:04:53.816Z,40.68
2018-09-09T13:07:21.935Z,40.25
2018-09-09T13:09:49.991Z,39.57
2018-09-09T13:12:18.085Z,37.97
2018-09-09T13:14:46.167Z,37.81
2018-09-09T13:17:14.267Z,33.22
2018-09-09T13:19:42.344Z,31.90
2018-09-09T13:22:10.407Z,31.59
2018-09-09T13:24:38.467Z,32.83
2018-09-09T13:27:06.579Z,33.78
2018-09-09T13:29:34.665Z,31.37
2018-09-09T13:32:02.744Z,32.74
2018-09-09T13:34:31.261Z,32.59
2018-09-09T13:36:59.552Z,33.64
2018-09-09T13:39:27.836Z,32.59
2018-09-09T13:41:56.055Z,33.34
2018-09-09T13:44:24.749Z,33.79
2018-09-09T13:46:55.117Z,32.62
2018-09-09T13:49:24.682Z,32.81
2018-09-09T13:51:53.019Z,34.99
2018-09-09T13:54:21.408Z,32.95
2018-09-09T13:56:49.678Z,35.45
2018-09-09T13:59:17.866Z,33.86
2018-09-09T14:01:46.225Z,34.53
2018-09-09T14:04:14.525Z,34.02
2018-09-09T14:06:44.190Z,34.08
2018-09-09T14:09:14.176Z,35.05
2018-09-09T14:11:45.609Z,33.34
2018-09-09T14:14:14.300Z,34.23
2018-09-09T14:16:42.640Z,32.35
2018-09-09T14:19:11.230Z,33.08
2018-09-09T14:21:39.766Z,32.12
2018-09-09T14:24:13.613Z,32.32
2018-09-09T14:26:41.705Z,34.03
2018-09-09T14:29:09.992Z,31.70
2018-09-09T14:31:40.803Z,33.39
2018-09-09T14:34:09.739Z,33.22
2018-09-09T14:36:38.222Z,32.97
2018-09-09T14:39:08.210Z,34.19
2018-09-09T14:41:36.737Z,33.80
2018-09-09T14:44:05.204Z,34.20
2018-09-09T14:46:34.116Z,33.39
2018-09-09T14:49:02.382Z,35.06
2018-09-09T14:51:30.648Z,34.61
2018-09-09T14:53:58.948Z,35.90
2018-09-09T14:56:27.039Z,35.71
2018-09-09T14:58:55.119Z,34.74
2018-09-09T15:01:23.214Z,34.60
2018-09-09T15:03:51.309Z,33.30
2018-09-09T15:06:19.526Z,34.24
2018-09-09T15:08:47.640Z,35.07
2018-09-09T15:11:15.801Z,35.79
2018-09-09T15:13:43.831Z,34.27
2018-09-09T15:16:11.902Z,35.07
2018-09-09T15:18:40.094Z,35.70
2018-09-09T15:21:08.167Z,37.19
2018-09-09T15:23:36.253Z,35.49
2018-09-09T15:26:04.392Z,34.35
2018-09-09T15:28:32.520Z,34.56
2018-09-09T15:31:00.592Z,35.50
2018-09-09T15:33:28.679Z,35.37
2018-09-09T15:35:56.763Z,35.98
2018-09-09T15:38:24.880Z,35.23
2018-09-09T15:40:53.000Z,36.08
2018-09-09T15:43:21.067Z,35.75
2018-09-09T15:45:49.137Z,35.02
2018-09-09T15:48:17.257Z,35.09
2018-09-09T15:50:45.451Z,34.40
2018-09-09T15:56:16.563Z,33.60
2018-09-09T15:58:44.651Z,35.50
2018-09-09T16:01:12.831Z,36.32
2018-09-09T16:03:40.908Z,37.06
2018-09-09T16:06:08.971Z,36.29
2018-09-09T16:08:37.041Z,36.57
2018-09-09T16:11:05.116Z,36.66
2018-09-09T16:13:33.214Z,36.53
2018-09-09T16:16:02.746Z,37.17
2018-09-09T16:18:30.811Z,37.69
2018-09-09T16:20:59.402Z,38.55
2018-09-09T16:23:27.599Z,38.02
2018-09-09T16:25:55.988Z,38.70
2018-09-09T16:28:24.831Z,37.97
2018-09-09T16:30:53.333Z,36.42
2018-09-09T16:33:23.373Z,37.31
2018-09-09T16:35:51.635Z,37.23
2018-09-09T16:38:19.815Z,37.99
2018-09-09T16:40:48.700Z,38.55
2018-09-09T16:43:17.703Z,38.11
2018-09-09T16:45:45.950Z,39.42
2018-09-09T16:48:14.163Z,39.66
2018-09-09T16:50:42.534Z,38.96
2018-09-09T16:53:13.744Z,38.58
2018-09-09T16:55:41.909Z,38.91
2018-09-09T16:58:10.694Z,38.31
2018-09-09T17:00:38.881Z,37.85
2018-09-09T17:03:07.519Z,38.21
2018-09-09T17:05:36.664Z,38.79
2018-09-09T17:08:05.003Z,39.92
2018-09-09T17:10:33.195Z,39.67
2018-09-09T17:13:01.408Z,40.59
2018-09-09T17:15:29.600Z,41.43
2018-09-09T17:17:57.788Z,42.40
2018-09-09T17:20:27.141Z,42.79
2018-09-09T17:25:50.744Z,44.87
2018-09-09T17:28:24.764Z,46.12
2018-09-09T17:32:09.236Z,44.97
2018-09-09T17:34:37.437Z,45.33
2018-09-09T17:37:05.695Z,43.95
2018-09-09T17:39:33.942Z,43.71
2018-09-09T17:42:02.894Z,44.27
2018-09-09T17:44:31.159Z,44.31
2018-09-09T17:46:59.390Z,45.34
2018-09-09T17:49:27.531Z,45.75
2018-09-09T17:51:55.762Z,45.86
2018-09-09T17:54:24.006Z,45.61
2018-09-09T17:56:52.189Z,46.02
2018-09-09T17:59:20.720Z,46.14
2018-09-09T18:01:49.012Z,47.55
2018-09-09T18:04:17.585Z,47.34
2018-09-09T18:06:45.876Z,47.49
2018-09-09T18:09:14.094Z,47.43
2018-09-09T18:11:42.613Z,48.49
2018-09-09T18:14:10.841Z,48.63
2018-09-09T18:16:39.012Z,49.64
2018-09-09T18:19:07.182Z,50.22
2018-09-09T18:21:35.715Z,49.97
2018-09-09T18:24:03.973Z,49.67
2018-09-09T18:26:32.273Z,49.99
2018-09-09T18:29:00.490Z,50.17
2018-09-09T18:31:29.217Z,50.46
2018-09-09T18:33:57.800Z,50.27
2018-09-09T18:36:25.990Z,50.59
2018-09-09T18:38:54.151Z,50.63
2018-09-09T18:41:23.023Z,51.74
2018-09-09T18:43:51.641Z,52.04
2018-09-09T18:46:19.880Z,51.92
2018-09-09T18:48:48.143Z,52.47
2018-09-09T18:51:16.366Z,52.61
2018-09-09T18:53:44.613Z,52.39
2018-09-09T18:56:12.911Z,53.23
2018-09-09T18:58:41.824Z,53.70
2018-09-09T19:01:10.381Z,53.66
2018-09-09T19:03:39.047Z,54.21
2018-09-09T19:06:07.336Z,54.52
2018-09-09T19:08:35.576Z,54.58
2018-09-09T19:11:03.825Z,55.15
2018-09-09T19:13:32.869Z,54.68
2018-09-09T19:16:01.086Z,55.57
2018-09-09T19:18:29.316Z,55.55
2018-09-09T19:20:57.807Z,54.92
2018-09-09T19:23:26.018Z,55.39
2018-09-09T19:25:54.221Z,55.85
2018-09-09T19:28:22.444Z,56.92
2018-09-09T19:30:51.068Z,56.62
2018-09-09T19:33:19.485Z,57.85
2018-09-09T19:35:47.702Z,57.64
2018-09-09T19:38:16.131Z,58.02
2018-09-09T19:40:44.466Z,59.21
2018-09-09T19:43:12.708Z,59.81
2018-09-09T19:45:40.974Z,59.85
2018-09-09T19:48:09.253Z,59.22
2018-09-09T19:50:38.369Z,59.45
2018-09-09T19:53:06.763Z,59.49
2018-09-09T19:55:35.038Z,59.81
2018-09-09T19:58:03.665Z,60.61
2018-09-09T20:00:32.207Z,59.77
2018-09-09T20:03:00.390Z,60.42
2018-09-09T20:05:28.780Z,60.91
2018-09-09T20:07:59.437Z,60.71
2018-09-09T20:10:27.964Z,61.32
2018-09-09T20:12:57.163Z,61.16
2018-09-09T20:15:25.677Z,61.78
2018-09-09T20:17:55.029Z,61.56
2018-09-09T20:20:23.675Z,62.05
2018-09-09T20:22:52.087Z,61.66
2018-09-09T20:25:20.353Z,62.09
2018-09-09T20:27:48.886Z,62.90
2018-09-09T20:30:17.419Z,63.32
2018-09-09T20:32:45.992Z,64.47
2018-09-09T20:35:14.745Z,64.21
2018-09-09T20:37:44.215Z,64.01
2018-09-09T20:40:12.482Z,63.33
2018-09-09T20:42:41.104Z,64.12
2018-09-09T20:45:09.467Z,63.25
2018-09-09T20:47:37.697Z,64.20
2018-09-09T20:50:06.035Z,64.62
2018-09-09T20:52:34.936Z,65.07
2018-09-09T20:55:03.187Z,64.89
2018-09-09T20:57:31.515Z,65.14
2018-09-09T20:59:59.780Z,66.69
2018-09-09T21:02:27.918Z,66.68
2018-09-09T21:04:56.904Z,66.35
2018-09-09T21:07:25.670Z,67.49
2018-09-09T21:09:53.823Z,67.15
2018-09-09T21:12:22.298Z,67.36
2018-09-09T21:14:50.542Z,66.79
2018-09-09T21:17:19.334Z,67.47
2018-09-09T21:19:47.647Z,67.27
2018-09-09T21:22:15.821Z,68.05
2018-09-09T21:24:44.295Z,68.22
2018-09-09T21:27:12.443Z,68.97
2018-09-09T21:29:40.675Z,68.77
2018-09-09T21:32:08.823Z,67.79
2018-09-09T21:34:38.972Z,68.11
2018-09-09T21:37:07.164Z,68.87
2018-09-09T21:39:36.564Z,68.16
2018-09-09T21:42:05.823Z,68.32
2018-09-09T21:44:34.412Z,69.12
2018-09-09T21:47:02.654Z,69.10
2018-09-09T21:49:30.860Z,69.17
2018-09-09T21:51:59.056Z,69.45
2018-09-09T21:54:27.339Z,70.01
2018-09-09T21:56:55.949Z,70.05
2018-09-09T21:59:24.200Z,70.85
2018-09-09T22:01:57.894Z,71.22
2018-09-09T22:04:26.160Z,72.35
2018-09-09T22:06:54.472Z,71.94
2018-09-09T22:09:22.621Z,72.27
2018-09-09T22:11:50.865Z,72.03
2018-09-09T22:14:19.023Z,72.09
2018-09-09T22:16:47.293Z,71.96
2018-09-09T22:19:15.508Z,72.58
2018-09-09T22:21:43.722Z,72.08
2018-09-09T22:24:11.904Z,72.05
2018-09-09T22:26:40.494Z,72.16
2018-09-09T22:29:08.680Z,71.95
2018-09-09T22:31:36.890Z,72.26
2018-09-09T22:34:05.114Z,72.31
2018-09-09T22:36:33.358Z,71.89
2018-09-09T22:39:02.030Z,72.59
2018-09-09T22:41:30.301Z,72.58
2018-09-09T22:43:58.495Z,73.21
2018-09-09T22:46:27.074Z,73.32
2018-09-09T22:48:55.265Z,73.65
2018-09-09T22:51:23.534Z,74.31
2018-09-09T22:53:51.857Z,74.07
2018-09-09T22:56:20.965Z,74.19
2018-09-09T22:58:49.164Z,74.27
2018-09-09T23:01:17.260Z,73.61
2018-09-09T23:03:45.321Z,72.75
2018-09-09T23:06:13.383Z,75.04
2018-09-09T23:08:41.511Z,75.33
2018-09-09T23:11:09.630Z,75.58
2018-09-09T23:13:37.734Z,75.96
2018-09-09T23:16:05.912Z,75.36
2018-09-09T23:18:33.979Z,75.09
2018-09-09T23:21:02.101Z,75.20
2018-09-09T23:23:30.191Z,75.87
2018-09-09T23:25:58.276Z,76.62
2018-09-09T23:28:26.375Z,76.45
2018-09-09T23:30:54.451Z,76.12
2018-09-09T23:33:22.547Z,75.86
2018-09-09T23:35:50.658Z,75.41
2018-09-09T23:38:19.139Z,76.33
2018-09-09T23:40:47.295Z,75.96
2018-09-09T23:43:15.379Z,76.33
2018-09-09T23:45:43.507Z,76.07
2018-09-09T23:48:11.607Z,75.91
2018-09-09T23:50:39.673Z,75.81
2018-09-09T23:53:08.080Z,76.10
2018-09-09T23:55:36.200Z,76.49
2018-09-09T23:58:04.296Z,77.59
